Time;durP1;ratioP1;P1;durP2;ratioP2;P2;SDS_P1;SDS_P2;PMS_P1;PMS_P2;Temp;Humidity;BMP_temperature;BMP_pressure;BME280_temperature;BME280_humidity;BME280_pressure;Samples;Min_cycle;Max_cycle;Signal;HPM_P1;HPM_P2
2024/04/03 00:01:14;;;;;;;8.75;3.15;;;;;;;14.39;60.79;100661.75;4956746;28;124140;-87
2024/04/03 00:03:42;;;;;;;5.57;3.05;;;;;;;14.39;60.83;100653.75;4941304;28;115282;-84
2024/04/03 00:06:08;;;;;;;6.30;2.50;;;;;;;14.40;60.91;100652.81;4956171;28;114267;-84
2024/04/03 00:08:35;;;;;;;6.72;2.72;;;;;;;14.39;61.00;100645.75;4947858;28;124925;-82
2024/04/03 00:11:01;;;;;;;7.55;3.28;;;;;;;14.40;61.00;100650.16;4950081;28;124155;-88
2024/04/03 00:13:28;;;;;;;6.70;2.63;;;;;;;14.41;61.11;100654.53;4975987;28;113571;-89
2024/04/03 00:15:56;;;;;;;5.93;2.55;;;;;;;14.41;61.12;100651.88;4955483;28;112101;-83
2024/04/03 00:18:23;;;;;;;4.80;2.67;;;;;;;14.41;61.26;100651.88;4973751;28;124547;-83
2024/04/03 00:20:59;;;;;;;5.38;3.05;;;;;;;14.41;61.35;100641.22;4968677;28;123896;-82
2024/04/03 00:23:25;;;;;;;6.32;3.05;;;;;;;14.41;61.45;100641.22;4943179;28;115979;-83
2024/04/03 00:26:00;;;;;;;5.97;2.65;;;;;;;14.43;61.23;100639.31;4957527;28;113095;-84
2024/04/03 00:28:27;;;;;;;5.27;2.40;;;;;;;14.42;61.17;100637.56;4936783;28;125462;-83
2024/04/03 00:30:54;;;;;;;6.32;2.63;;;;;;;14.41;61.35;100635.88;4941527;28;124488;-83
2024/04/03 00:33:21;;;;;;;6.35;2.80;;;;;;;14.39;61.59;100640.44;4956514;28;116176;-83
2024/04/03 00:35:59;;;;;;;5.57;3.15;;;;;;;14.39;61.53;100643.09;4956310;28;112668;-86
2024/04/03 00:38:26;;;;;;;9.55;2.85;;;;;;;14.40;61.25;100636.81;4975626;28;120726;-87
2024/04/03 00:41:00;;;;;;;4.82;2.72;;;;;;;14.38;61.45;100636.06;4975546;28;122171;-82
2024/04/03 00:43:27;;;;;;;6.55;2.60;;;;;;;14.37;61.55;100629.03;4961281;28;115888;-85
2024/04/03 00:45:59;;;;;;;7.65;3.08;;;;;;;14.36;61.65;100632.66;4949161;28;113913;-84
2024/04/03 00:48:27;;;;;;;7.38;2.65;;;;;;;14.36;61.44;100632.66;4936759;28;123467;-83
2024/04/03 00:50:55;;;;;;;5.80;2.90;;;;;;;14.33;61.60;100632.84;4950370;28;122962;-84
2024/04/03 00:53:23;;;;;;;5.70;2.88;;;;;;;14.32;61.71;100626.66;4951112;28;113480;-84
2024/04/03 00:55:50;;;;;;;7.07;3.05;;;;;;;14.31;61.78;100629.44;4931439;28;113562;-86
2024/04/03 00:58:16;;;;;;;4.93;2.90;;;;;;;14.31;61.76;100618.78;4931151;28;124223;-82
2024/04/03 01:00:42;;;;;;;6.50;3.00;;;;;;;14.30;61.91;100622.41;4951831;28;123530;-83
2024/04/03 01:03:09;;;;;;;6.75;2.92;;;;;;;14.31;61.80;100624.09;4938768;28;115446;-83
2024/04/03 01:05:35;;;;;;;5.50;2.88;;;;;;;14.31;61.69;100618.78;4932209;28;114207;-85
2024/04/03 01:08:02;;;;;;;4.60;3.05;;;;;;;14.34;61.99;100618.59;4947829;28;125404;-83
2024/04/03 01:10:28;;;;;;;7.47;2.92;;;;;;;14.32;61.92;100609.84;4951114;28;122327;-83
2024/04/03 01:12:57;;;;;;;6.55;3.00;;;;;;;14.32;62.00;100609.84;4946237;28;114970;-87
2024/04/03 01:15:23;;;;;;;5.88;2.80;;;;;;;14.31;61.91;100608.09;4926920;28;115361;-83
2024/04/03 01:17:49;;;;;;;6.63;2.85;;;;;;;14.30;62.02;100598.44;4960524;28;123797;-84
2024/04/03 01:20:16;;;;;;;6.03;2.63;;;;;;;14.30;61.95;100606.41;4951470;28;124153;-86
2024/04/03 01:22:45;;;;;;;5.10;2.92;;;;;;;14.29;61.89;100604.69;4953156;28;115941;-84
2024/04/03 01:25:11;;;;;;;5.53;2.53;;;;;;;14.29;61.96;100604.69;4959020;28;113642;-81
2024/04/03 01:27:38;;;;;;;7.57;2.63;;;;;;;14.28;62.01;100592.31;4947465;28;123932;-81
2024/04/03 01:30:04;;;;;;;5.10;2.40;;;;;;;14.30;62.07;100590.44;4945173;28;123086;-81
2024/04/03 01:32:32;;;;;;;5.18;2.50;;;;;;;14.30;62.07;100585.94;4931045;28;115112;-81
2024/04/03 01:34:58;;;;;;;3.95;2.20;;;;;;;14.34;61.97;100586.59;4956026;28;113981;-83
2024/04/03 01:37:24;;;;;;;5.72;2.83;;;;;;;14.35;62.02;100588.31;4951325;28;125030;-81
2024/04/03 01:39:50;;;;;;;6.20;2.47;;;;;;;14.36;62.31;100579.38;4942975;28;122179;-81
2024/04/03 01:42:17;;;;;;;4.93;2.20;;;;;;;14.35;62.09;100582.97;4937042;28;113674;-81
2024/04/03 01:44:44;;;;;;;6.75;2.67;;;;;;;14.36;62.05;100579.38;4934153;28;114700;-81
2024/04/03 01:47:10;;;;;;;6.70;2.38;;;;;;;14.37;61.96;100581.06;4949428;28;122273;-81
2024/04/03 01:49:36;;;;;;;7.35;2.13;;;;;;;14.36;61.93;100584.69;4945465;28;125997;-81
2024/04/03 01:52:02;;;;;;;6.75;2.60;;;;;;;14.37;62.04;100575.72;4959729;28;113748;-81
2024/04/03 01:54:29;;;;;;;7.25;2.50;;;;;;;14.37;62.07;100579.28;4928572;28;114420;-80
2024/04/03 01:56:57;;;;;;;7.00;2.47;;;;;;;14.38;62.08;100577.47;4949622;28;124110;-81
2024/04/03 01:59:23;;;;;;;5.30;2.42;;;;;;;14.37;62.01;100565.06;4957279;28;123567;-80
2024/04/03 02:01:49;;;;;;;3.90;2.40;;;;;;;14.37;62.00;100570.41;4949138;28;114905;-81
2024/04/03 02:04:15;;;;;;;4.80;2.58;;;;;;;14.35;62.01;100553.66;4952540;28;113859;-81
2024/04/03 02:06:42;;;;;;;5.60;2.30;;;;;;;14.34;61.98;100549.31;4948979;28;123883;-81
2024/04/03 02:09:08;;;;;;;4.97;2.35;;;;;;;14.32;61.99;100548.56;4943106;28;123572;-82
2024/04/03 02:11:34;;;;;;;5.00;2.47;;;;;;;14.32;62.05;100545.91;4954525;28;114636;-83
2024/04/03 02:14:00;;;;;;;6.45;2.42;;;;;;;14.31;62.16;100537.03;4928367;28;115229;-83
2024/04/03 02:16:29;;;;;;;6.07;2.45;;;;;;;14.30;62.13;100531.81;4944707;28;125712;-83
2024/04/03 02:18:56;;;;;;;6.25;2.20;;;;;;;14.30;62.12;100531.81;4936492;28;123950;-86
2024/04/03 02:21:23;;;;;;;4.75;2.40;;;;;;;14.28;61.94;100523.06;4951697;28;114746;-82
2024/04/03 02:23:49;;;;;;;6.50;2.33;;;;;;;14.28;62.19;100523.06;4957431;28;115077;-85
2024/04/03 02:26:15;;;;;;;4.45;2.10;;;;;;;14.28;62.11;100517.72;4942903;28;125080;-84
2024/04/03 02:28:42;;;;;;;4.25;2.10;;;;;;;14.26;62.15;100508.97;4964512;28;122432;-83
2024/04/03 02:31:08;;;;;;;6.65;2.72;;;;;;;14.25;62.25;100501.97;4954813;28;115580;-83
2024/04/03 02:33:34;;;;;;;7.55;2.47;;;;;;;14.26;62.10;100493.00;4948138;28;115216;-84
2024/04/03 02:36:11;;;;;;;4.47;2.25;;;;;;;14.26;62.13;100493.00;4944514;28;124006;-83
2024/04/03 02:38:37;;;;;;;5.30;2.13;;;;;;;14.24;62.17;100485.13;4959951;28;124957;-83
2024/04/03 02:41:03;;;;;;;6.30;2.30;;;;;;;14.24;62.19;100489.59;4934849;28;112780;-83
2024/04/03 02:43:30;;;;;;;4.78;2.15;;;;;;;14.24;62.35;100476.25;4953442;28;113754;-83
2024/04/03 02:45:56;;;;;;;7.57;2.22;;;;;;;14.24;62.22;100478.94;4931033;28;124889;-84
2024/04/03 02:48:23;;;;;;;5.72;2.13;;;;;;;14.24;62.24;100474.47;4949579;28;123603;-83
2024/04/03 02:50:50;;;;;;;5.07;1.85;;;;;;;14.25;62.31;100464.66;4946946;28;114929;-83
2024/04/03 02:53:16;;;;;;;5.80;2.17;;;;;;;14.24;62.22;100465.63;4946543;28;116255;-84
2024/04/03 02:55:43;;;;;;;6.35;2.45;;;;;;;14.24;62.27;100460.28;4943797;28;123030;-84
2024/04/03 02:58:09;;;;;;;4.68;2.33;;;;;;;14.23;62.26;100466.59;4960113;28;123824;-84
2024/04/03 03:00:35;;;;;;;6.78;2.17;;;;;;;14.20;62.20;100471.16;4944379;28;115209;-84
2024/04/03 03:03:02;;;;;;;5.95;2.50;;;;;;;14.19;62.33;100465.94;4948393;28;115012;-84
2024/04/03 03:05:28;;;;;;;4.43;2.65;;;;;;;14.19;62.21;100472.09;4947783;28;124301;-84
2024/04/03 03:07:54;;;;;;;6.30;2.25;;;;;;;14.19;62.47;100465.94;4945896;28;124956;-84
2024/04/03 03:10:21;;;;;;;5.72;2.28;;;;;;;14.19;62.25;100456.13;4945437;28;115198;-85
2024/04/03 03:12:47;;;;;;;8.35;2.47;;;;;;;14.19;62.28;100456.13;4945633;28;114259;-84
2024/04/03 03:15:13;;;;;;;7.10;2.50;;;;;;;14.19;62.42;100453.47;4948922;28;125442;-84
2024/04/03 03:17:43;;;;;;;7.03;2.33;;;;;;;14.20;62.37;100457.84;4946896;28;123974;-86
2024/04/03 03:20:09;;;;;;;6.57;2.20;;;;;;;14.20;62.30;100457.84;4954546;28;112677;-85
2024/04/03 03:22:35;;;;;;;7.90;2.05;;;;;;;14.20;62.21;100446.31;4949728;28;115045;-83
2024/04/03 03:25:02;;;;;;;6.57;2.30;;;;;;;14.18;62.34;100443.78;4930530;28;123628;-84
2024/04/03 03:27:28;;;;;;;5.57;2.38;;;;;;;14.17;62.15;100442.06;4948282;28;124052;-84
2024/04/03 03:29:54;;;;;;;7.45;2.30;;;;;;;14.18;62.31;100440.25;4933542;28;115918;-86
2024/04/03 03:32:20;;;;;;;5.88;2.38;;;;;;;14.18;62.33;100442.91;4938076;28;114189;-85
2024/04/03 03:34:47;;;;;;;5.85;2.40;;;;;;;14.18;62.39;100438.44;4948475;28;122267;-84
2024/04/03 03:37:16;;;;;;;6.63;2.45;;;;;;;14.18;62.26;100432.25;4936069;28;122981;-83
2024/04/03 03:39:42;;;;;;;6.45;2.28;;;;;;;14.17;62.40;100431.41;4965132;28;115447;-82
2024/04/03 03:42:10;;;;;;;5.00;2.40;;;;;;;14.15;62.37;100433.31;4949150;28;116154;-81
2024/04/03 03:44:36;;;;;;;5.28;2.08;;;;;;;14.15;62.37;100432.47;4930719;28;125677;-81
2024/04/03 03:47:02;;;;;;;8.75;2.45;;;;;;;14.14;62.36;100428.94;4960696;28;122051;-81
2024/04/03 03:55:00;;;;;;;5.47;2.45;;;;;;;14.09;62.49;100417.75;4958029;28;125383;-82
2024/04/03 03:57:30;;;;;;;5.55;2.30;;;;;;;14.10;62.52;100429.25;4952423;28;121982;-82
2024/04/03 03:59:57;;;;;;;8.35;2.40;;;;;;;14.09;62.43;100423.09;4970278;28;114327;-84
2024/04/03 04:02:24;;;;;;;4.95;2.22;;;;;;;14.09;62.52;100420.41;4959518;28;113977;-84
2024/04/03 04:04:51;;;;;;;5.68;2.10;;;;;;;14.10;62.53;100414.13;4959847;28;123491;-81
2024/04/03 04:07:21;;;;;;;8.15;2.33;;;;;;;14.09;62.60;100407.09;4944477;28;124416;-81
2024/04/03 04:09:52;;;;;;;6.47;2.28;;;;;;;14.10;62.64;100413.28;4953120;28;113600;-82
2024/04/03 04:12:19;;;;;;;5.95;2.20;;;;;;;14.09;62.43;100407.09;4953988;28;115558;-82
2024/04/03 04:14:50;;;;;;;6.50;2.30;;;;;;;14.07;62.53;100406.34;4957331;28;125889;-81
2024/04/03 04:17:18;;;;;;;6.97;2.38;;;;;;;14.08;62.65;100405.38;4950584;28;123994;-81
2024/04/03 04:19:45;;;;;;;6.38;2.75;;;;;;;14.07;62.61;100393.03;4955715;28;114931;-82
2024/04/03 04:22:12;;;;;;;9.73;3.20;;;;;;;14.08;62.61;100399.22;4953090;28;115193;-82
2024/04/03 04:24:39;;;;;;;9.88;3.00;;;;;;;14.06;62.67;100391.31;4949476;28;124114;-82
2024/04/03 04:27:07;;;;;;;5.40;2.55;;;;;;;14.07;62.64;100386.84;4950760;28;123128;-82
2024/04/03 04:29:36;;;;;;;8.05;2.67;;;;;;;14.05;62.57;100388.75;4946724;28;114176;-81
2024/04/03 04:32:08;;;;;;;9.88;2.50;;;;;;;14.02;62.81;100384.50;4943769;28;114706;-81
2024/04/03 04:34:34;;;;;;;6.22;2.40;;;;;;;14.02;62.69;100387.16;4947880;28;125302;-82
2024/04/03 04:37:00;;;;;;;6.00;2.60;;;;;;;14.00;62.63;100381.94;4935426;28;124953;-81
2024/04/03 04:39:26;;;;;;;6.80;2.53;;;;;;;13.99;62.62;100390.91;4955978;28;113760;-82
2024/04/03 04:41:53;;;;;;;7.10;2.70;;;;;;;13.98;62.71;100383.00;4949768;28;114014;-82
2024/04/03 04:44:19;;;;;;;9.50;2.88;;;;;;;13.98;62.72;100380.34;4935057;28;124404;-81
2024/04/03 04:46:50;;;;;;;6.97;3.30;;;;;;;13.98;62.81;100383.00;4946240;28;123686;-82
2024/04/03 04:49:17;;;;;;;8.18;3.03;;;;;;;13.98;62.86;100377.69;4958935;28;117415;-82
2024/04/03 04:51:44;;;;;;;6.45;2.33;;;;;;;13.97;62.65;100375.97;4946013;28;115027;-82
2024/04/03 04:54:15;;;;;;;6.22;2.50;;;;;;;13.97;62.92;100370.63;4948295;28;125221;-82
2024/04/03 04:56:41;;;;;;;7.85;2.60;;;;;;;13.96;62.78;100368.94;4950211;28;125578;-82
2024/04/03 04:59:08;;;;;;;5.10;2.60;;;;;;;13.96;62.95;100358.28;4954151;28;113215;-81
2024/04/03 05:01:36;;;;;;;7.10;2.60;;;;;;;13.96;62.88;100368.94;4942677;28;114024;-84
2024/04/03 05:04:03;;;;;;;5.68;2.30;;;;;;;13.95;62.92;100367.22;4952360;28;122425;-84
2024/04/03 05:06:29;;;;;;;7.45;2.55;;;;;;;13.95;62.94;100361.91;4951409;28;123733;-84
2024/04/03 05:08:56;;;;;;;6.70;2.78;;;;;;;13.97;62.78;100365.31;4937128;28;113297;-85
2024/04/03 05:11:23;;;;;;;5.80;2.92;;;;;;;13.97;62.94;100359.97;4931805;28;114732;-84
2024/04/03 05:13:52;;;;;;;9.40;2.80;;;;;;;13.98;62.93;100359.88;4949614;28;124050;-85
2024/04/03 05:16:21;;;;;;;8.07;2.97;;;;;;;13.98;62.69;100353.72;4944421;28;123457;-84
2024/04/03 05:18:49;;;;;;;8.52;3.70;;;;;;;13.99;62.77;100352.75;4946490;28;114448;-84
2024/04/03 05:21:17;;;;;;;7.50;3.53;;;;;;;13.98;62.86;100356.38;4951064;28;115928;-82
2024/04/03 05:23:44;;;;;;;8.55;3.72;;;;;;;13.98;62.81;100356.38;4952392;28;125057;-83
2024/04/03 05:26:11;;;;;;;9.57;3.85;;;;;;;13.98;62.70;100356.38;4949379;28;122234;-84
2024/04/03 05:28:39;;;;;;;15.27;4.40;;;;;;;13.98;62.75;100351.06;4937408;28;113079;-83
2024/04/03 05:31:06;;;;;;;9.32;4.15;;;;;;;14.00;62.85;100354.47;4936630;28;114807;-83
2024/04/03 05:33:33;;;;;;;9.75;4.07;;;;;;;13.98;62.75;100345.72;4947419;28;125137;-83
2024/04/03 05:36:01;;;;;;;9.10;4.07;;;;;;;13.98;62.80;100340.41;4953281;28;124882;-87
2024/04/03 05:38:28;;;;;;;8.55;3.70;;;;;;;13.98;63.00;100340.41;4931093;28;114093;-83
2024/04/03 05:40:55;;;;;;;9.30;4.07;;;;;;;13.98;62.88;100343.06;4951610;28;115093;-83
2024/04/03 05:43:23;;;;;;;7.50;4.30;;;;;;;13.98;62.75;100335.06;4947045;28;124846;-83
2024/04/03 05:45:50;;;;;;;7.85;4.45;;;;;;;14.00;62.89;100330.50;4949953;28;123245;-83
2024/04/03 05:48:16;;;;;;;7.00;4.05;;;;;;;14.00;62.78;100327.84;4939864;28;114876;-85
2024/04/03 05:50:42;;;;;;;8.38;3.67;;;;;;;13.99;62.85;100329.66;4962346;28;112771;-83
2024/04/03 05:53:09;;;;;;;7.00;3.63;;;;;;;13.98;62.71;100329.75;4955179;28;125107;-85
2024/04/03 05:55:35;;;;;;;9.38;3.70;;;;;;;13.97;62.87;100328.88;4949502;28;124147;-86
2024/04/03 05:58:02;;;;;;;6.80;3.53;;;;;;;13.98;62.99;100327.09;4952286;28;113901;-84
2024/04/03 06:00:29;;;;;;;4.68;3.00;;;;;;;14.00;62.52;100317.19;4954185;28;113138;-84
2024/04/03 06:02:55;;;;;;;6.63;3.38;;;;;;;14.00;62.98;100327.84;4956590;28;123012;-84
2024/04/03 06:05:21;;;;;;;6.63;2.83;;;;;;;14.01;62.87;100325.06;4955537;28;122405;-84
2024/04/03 06:07:49;;;;;;;6.57;3.30;;;;;;;14.02;62.97;100320.59;4940381;28;113429;-82
2024/04/03 06:10:16;;;;;;;11.00;3.17;;;;;;;14.01;62.84;100324.19;4956152;28;113709;-83
2024/04/03 06:12:42;;;;;;;7.53;2.67;;;;;;;14.04;62.89;100318.69;4931450;28;122226;-83
2024/04/03 06:15:09;;;;;;;8.45;2.50;;;;;;;14.04;62.96;100318.69;4945248;28;124869;-84
2024/04/03 06:17:35;;;;;;;7.00;2.83;;;;;;;14.05;62.98;100309.72;4955675;28;114296;-84
2024/04/03 06:20:03;;;;;;;10.95;2.45;;;;;;;14.06;63.06;100316.75;4934528;28;114906;-84
2024/04/03 06:22:29;;;;;;;7.82;2.70;;;;;;;14.08;63.00;100308.69;4948291;28;123003;-84
2024/04/03 06:24:55;;;;;;;4.82;2.35;;;;;;;14.09;62.86;100316.56;4935766;28;122121;-83
2024/04/03 06:27:22;;;;;;;4.40;2.53;;;;;;;14.12;62.79;100311.00;4954932;28;112258;-84
2024/04/03 06:29:48;;;;;;;7.65;2.50;;;;;;;14.14;62.91;100314.41;4930898;28;113791;-83
2024/04/03 06:32:14;;;;;;;8.52;2.60;;;;;;;14.16;62.99;100312.50;4931628;28;124068;-83
2024/04/03 06:34:41;;;;;;;5.07;2.30;;;;;;;14.20;63.05;100314.03;4949236;28;123859;-83
2024/04/03 06:37:07;;;;;;;7.93;2.50;;;;;;;14.24;62.98;100313.78;4949438;28;113469;-84
2024/04/03 06:39:33;;;;;;;6.53;2.17;;;;;;;14.27;63.03;100309.09;4929742;28;115270;-84
2024/04/03 06:42:00;;;;;;;5.10;2.25;;;;;;;14.30;62.88;100305.41;4931861;28;124925;-83
2024/04/03 06:44:27;;;;;;;4.97;2.63;;;;;;;14.33;62.96;100302.50;4935174;28;124899;-82
2024/04/03 06:46:58;;;;;;;9.65;2.42;;;;;;;14.38;62.79;100305.69;4949932;28;114851;-85
2024/04/03 06:49:27;;;;;;;6.97;3.33;;;;;;;14.40;62.75;100299.28;4932128;28;115063;-83
2024/04/03 06:51:53;;;;;;;8.38;2.47;;;;;;;14.43;62.96;100298.25;4954499;28;125289;-82
2024/04/03 06:54:20;;;;;;;6.97;2.67;;;;;;;14.45;63.07;100296.34;4946296;28;124153;-81
2024/04/03 06:56:49;;;;;;;4.85;2.47;;;;;;;14.47;62.84;100299.75;4936778;28;116070;-82
2024/04/03 06:59:15;;;;;;;5.15;2.08;;;;;;;14.49;62.99;100287.16;4953497;28;116045;-81
2024/04/03 07:01:42;;;;;;;5.97;2.55;;;;;;;14.52;62.80;100292.28;4964656;28;123742;-83
2024/04/03 07:04:08;;;;;;;6.07;1.98;;;;;;;14.53;62.95;100288.63;4938965;28;125551;-84
2024/04/03 07:06:34;;;;;;;7.97;2.30;;;;;;;14.56;62.63;100282.22;4952186;28;113636;-83
2024/04/03 07:09:00;;;;;;;8.68;2.00;;;;;;;14.58;62.83;100285.69;4961992;28;114744;-82
2024/04/03 07:11:29;;;;;;;6.15;2.00;;;;;;;14.58;62.79;100286.53;4955067;28;123991;-82
2024/04/03 07:13:55;;;;;;;5.18;2.08;;;;;;;14.60;62.83;100289.09;4946020;28;125308;-83
2024/04/03 07:16:26;;;;;;;5.97;2.10;;;;;;;14.62;62.90;100291.63;4952132;28;114598;-83
2024/04/03 07:18:56;;;;;;;6.40;2.20;;;;;;;14.63;62.65;100280.03;4962641;28;114960;-83
2024/04/03 07:21:23;;;;;;;5.30;1.95;;;;;;;14.64;62.65;100289.75;4949039;28;123193;-83
2024/04/03 07:23:50;;;;;;;6.03;2.03;;;;;;;14.67;62.40;100284.16;4933049;28;125212;-82
2024/04/03 07:26:19;;;;;;;5.60;1.73;;;;;;;14.69;62.62;100292.91;4960286;28;114120;-83
2024/04/03 07:28:48;;;;;;;4.80;2.13;;;;;;;14.69;62.72;100292.91;4950890;28;114511;-82
2024/04/03 07:31:15;;;;;;;5.18;2.00;;;;;;;14.69;62.62;100288.44;4953562;28;123061;-82
2024/04/03 07:33:41;;;;;;;3.75;1.80;;;;;;;14.71;62.73;100290.97;4946436;28;123379;-82
2024/04/03 07:36:08;;;;;;;6.53;2.10;;;;;;;14.70;62.49;100286.63;4939786;28;115699;-82
2024/04/03 07:38:34;;;;;;;5.75;1.90;;;;;;;14.73;62.49;100283.72;4955606;28;114947;-82
2024/04/03 07:41:00;;;;;;;5.50;1.73;;;;;;;14.75;62.56;100281.84;4964734;28;123597;-82
2024/04/03 07:43:26;;;;;;;7.15;1.83;;;;;;;14.76;62.65;100280.84;4935056;28;123341;-84
2024/04/03 07:45:57;;;;;;;10.18;1.90;;;;;;;14.76;62.62;100283.53;4952484;28;115704;-83
2024/04/03 07:48:23;;;;;;;7.00;1.95;;;;;;;14.78;62.58;100286.94;4954450;28;114444;-82
2024/04/03 07:50:59;;;;;;;6.28;1.70;;;;;;;14.77;62.58;100282.56;4961736;28;125223;-81
2024/04/03 07:53:26;;;;;;;3.60;1.88;;;;;;;14.78;62.52;100286.94;4949257;28;125352;-81
2024/04/03 07:55:52;;;;;;;3.80;1.60;;;;;;;14.78;62.56;100276.25;4934951;28;113187;-81
2024/04/03 07:58:18;;;;;;;5.05;1.77;;;;;;;14.77;62.44;100277.25;4955608;28;114282;-81
2024/04/03 08:00:45;;;;;;;6.40;1.73;;;;;;;14.77;62.40;100282.56;4953461;28;125792;-82
2024/04/03 08:03:12;;;;;;;4.60;1.70;;;;;;;14.76;62.29;100278.19;4946442;28;123351;-81
2024/04/03 08:05:38;;;;;;;5.10;1.65;;;;;;;14.76;62.37;100279.03;4942491;28;115456;-81
2024/04/03 08:08:04;;;;;;;8.05;1.67;;;;;;;14.78;62.47;100276.25;4952102;28;114830;-83
2024/04/03 08:10:30;;;;;;;5.78;1.40;;;;;;;14.79;62.45;100277.97;4952634;28;125122;-83
2024/04/03 08:12:56;;;;;;;4.18;2.05;;;;;;;14.82;62.49;100288.41;4966911;28;123706;-82
2024/04/03 08:15:23;;;;;;;4.80;1.60;;;;;;;14.83;62.40;100278.63;4948413;28;115090;-83
2024/04/03 08:17:49;;;;;;;2.95;1.70;;;;;;;14.84;62.51;100274.97;4940991;28;114225;-84
2024/04/03 08:20:15;;;;;;;4.63;1.75;;;;;;;14.86;62.59;100284.56;4956031;28;124390;-82
2024/04/03 08:22:41;;;;;;;4.00;1.52;;;;;;;14.87;62.65;100280.94;4953514;28;124758;-82
2024/04/03 08:25:08;;;;;;;5.20;1.42;;;;;;;14.90;62.46;100286.06;4937362;28;115276;-81
2024/04/03 08:27:34;;;;;;;3.67;1.50;;;;;;;14.92;62.34;100278.78;4934374;28;115341;-81
2024/04/03 08:30:01;;;;;;;3.80;1.20;;;;;;;14.95;62.45;100278.56;4929594;28;124681;-82
2024/04/03 08:32:27;;;;;;;3.38;1.60;;;;;;;14.99;62.23;100285.41;4952756;28;123803;-82
2024/04/03 08:34:53;;;;;;;2.63;1.40;;;;;;;15.02;62.49;100288.81;4956484;28;114719;-82
2024/04/03 08:37:20;;;;;;;2.40;1.50;;;;;;;15.05;62.34;100285.88;4954880;28;115482;-82
2024/04/03 08:39:51;;;;;;;2.28;1.20;;;;;;;15.06;62.41;100292.94;4955801;28;123138;-81
2024/04/03 08:42:17;;;;;;;3.10;1.15;;;;;;;15.08;62.29;100297.19;4955498;28;125224;-81
2024/04/03 08:44:44;;;;;;;3.22;1.35;;;;;;;15.08;62.18;100289.19;4961699;28;114201;-81
2024/04/03 08:47:10;;;;;;;3.30;1.60;;;;;;;15.10;62.32;100294.41;4934070;28;115050;-81
2024/04/03 08:49:36;;;;;;;2.00;1.40;;;;;;;15.11;62.11;100293.47;4961050;28;124413;-82
2024/04/03 08:52:06;;;;;;;2.85;1.50;;;;;;;15.12;62.15;100295.16;4944142;28;125654;-86
2024/04/03 08:54:33;;;;;;;2.67;1.33;;;;;;;15.12;62.13;100287.16;4954346;28;114988;-81
2024/04/03 08:57:03;;;;;;;3.25;1.20;;;;;;;15.10;62.05;100297.09;4951180;28;114756;-82
2024/04/03 08:59:34;;;;;;;4.65;1.52;;;;;;;15.10;62.22;100287.25;4951513;28;124302;-81
2024/04/03 09:02:01;;;;;;;4.43;1.40;;;;;;;15.12;62.13;100289.81;4956388;28;124418;-81
2024/04/03 09:04:28;;;;;;;2.75;1.35;;;;;;;15.11;62.15;100293.47;4934394;28;114464;-83
2024/04/03 09:06:55;;;;;;;4.05;1.40;;;;;;;15.11;62.10;100293.47;4930259;28;113525;-81
2024/04/03 09:09:26;;;;;;;2.95;1.38;;;;;;;15.12;62.34;100284.47;4949279;28;124951;-81
2024/04/03 09:12:01;;;;;;;5.03;1.63;;;;;;;15.11;62.00;100288.13;4948066;28;125419;-82
2024/04/03 09:14:28;;;;;;;3.92;1.45;;;;;;;15.11;62.06;100277.47;4965883;28;114338;-81
2024/04/03 09:17:02;;;;;;;3.10;1.30;;;;;;;15.13;62.26;100286.19;4945432;28;113696;-82
2024/04/03 09:19:29;;;;;;;5.03;1.40;;;;;;;15.13;62.33;100280.88;4937214;28;125632;-82
2024/04/03 09:21:58;;;;;;;3.95;1.33;;;;;;;15.14;62.17;100277.22;4946856;28;123310;-82
2024/04/03 09:24:24;;;;;;;3.13;1.23;;;;;;;15.16;62.12;100275.28;4966219;28;115220;-83
2024/04/03 09:26:51;;;;;;;2.92;1.30;;;;;;;15.17;62.12;100277.84;4925222;28;116308;-83
2024/04/03 09:29:18;;;;;;;6.00;1.45;;;;;;;15.20;62.30;100276.78;4950979;28;126416;-82
2024/04/03 09:31:45;;;;;;;4.55;1.52;;;;;;;15.21;62.16;100283.81;4949438;28;124192;-83
2024/04/03 09:34:12;;;;;;;3.00;1.23;;;;;;;15.21;62.19;100277.63;4950733;28;113914;-82
2024/04/03 09:36:39;;;;;;;4.90;1.60;;;;;;;15.20;62.30;100282.13;4954550;28;114825;-83
2024/04/03 09:39:07;;;;;;;2.80;1.25;;;;;;;15.21;62.26;100281.16;4946351;28;125219;-82
2024/04/03 09:41:33;;;;;;;3.28;1.40;;;;;;;15.23;62.17;100276.53;4952987;28;124546;-82
2024/04/03 09:44:02;;;;;;;3.95;1.70;;;;;;;15.25;62.13;100274.63;4935441;28;114785;-82
2024/04/03 09:46:37;;;;;;;2.83;1.40;;;;;;;15.27;62.32;100275.34;4955106;28;114905;-87
2024/04/03 09:49:06;;;;;;;;;;;;;;;15.27;62.16;100272.69;4965032;28;123527;-82
2024/04/03 09:51:32;;;;;;;3.30;1.30;;;;;;;15.31;62.01;100274.19;4936126;28;123178;-82
2024/04/03 09:54:00;;;;;;;2.35;1.45;;;;;;;15.34;62.07;100279.28;4934134;28;115520;-82
2024/04/03 09:56:27;;;;;;;3.35;1.33;;;;;;;15.36;62.20;100276.50;4952412;28;113288;-83
2024/04/03 09:58:53;;;;;;;3.50;1.52;;;;;;;15.40;62.21;100282.47;4935891;28;125099;-86
2024/04/03 10:01:20;;;;;;;3.25;1.38;;;;;;;15.43;62.14;100280.41;4944736;28;122485;-86
2024/04/03 10:03:46;;;;;;;3.70;1.40;;;;;;;15.46;62.15;100268.66;4971272;28;114833;-84
2024/04/03 10:06:16;;;;;;;2.28;1.40;;;;;;;15.51;62.26;100269.16;4955922;28;113659;-82
2024/04/03 10:08:47;;;;;;;2.88;1.40;;;;;;;15.55;62.01;100281.31;4972411;28;124468;-84
2024/04/03 10:11:16;;;;;;;3.33;1.65;;;;;;;15.61;62.00;100270.16;4966648;28;125299;-84
2024/04/03 10:13:46;;;;;;;3.75;1.38;;;;;;;15.65;62.04;100266.31;4963053;28;115237;-88
2024/04/03 10:16:14;;;;;;;3.88;1.58;;;;;;;15.70;62.00;100264.13;4978677;28;114573;-84
2024/04/03 10:18:51;;;;;;;2.38;1.52;;;;;;;15.76;61.98;100263.72;4945098;28;123131;-85
2024/04/03 10:21:19;;;;;;;3.08;1.13;;;;;;;15.85;62.32;100256.81;4934034;28;124057;-84
2024/04/03 10:23:48;;;;;;;4.40;1.40;;;;;;;15.93;61.90;100258.88;4945780;28;113653;-86
2024/04/03 10:26:56;;;;;;;2.15;1.30;;;;;;;16.02;61.73;100252.84;4960282;28;113244;-85
2024/04/03 10:29:42;;;;;;;3.15;1.27;;;;;;;16.10;61.70;100255.75;4944213;28;123307;-83
2024/04/03 10:32:14;;;;;;;2.63;1.58;;;;;;;16.18;61.77;100251.63;4946545;28;123284;-88
2024/04/03 10:34:40;;;;;;;2.75;1.30;;;;;;;16.24;61.67;100251.19;4929580;28;114149;-83
2024/04/03 10:37:10;;;;;;;2.50;1.38;;;;;;;16.29;61.41;100243.63;4925295;28;113164;-85
2024/04/03 10:39:36;;;;;;;2.50;1.20;;;;;;;16.32;61.44;100248.75;4923410;28;123166;-84
2024/04/03 10:42:04;;;;;;;2.30;1.50;;;;;;;16.36;61.38;100250.19;4953732;28;123399;-83
2024/04/03 10:44:30;;;;;;;1.60;1.20;;;;;;;16.42;61.25;100248.88;4928394;28;113524;-83
2024/04/03 10:47:06;;;;;;;1.75;1.30;;;;;;;16.46;61.24;100250.31;4930850;28;113300;-83
2024/04/03 10:49:33;;;;;;;2.40;1.30;;;;;;;16.53;61.28;100256.88;4956498;28;123486;-85
2024/04/03 10:51:59;;;;;;;2.70;1.27;;;;;;;16.57;60.93;100241.44;4946323;28;123135;-83
2024/04/03 10:54:26;;;;;;;2.28;1.30;;;;;;;16.59;60.93;100250.19;4927827;28;113287;-84
2024/04/03 10:56:52;;;;;;;2.60;1.00;;;;;;;16.62;60.68;100249.97;4945899;28;118364;-85
2024/04/03 10:59:19;;;;;;;1.75;1.10;;;;;;;16.61;60.33;100253.59;4930867;28;123412;-83
2024/04/03 11:01:45;;;;;;;1.85;1.00;;;;;;;16.61;60.54;100243.75;4941692;28;124973;-83
2024/04/03 11:04:11;;;;;;;1.50;1.10;;;;;;;16.65;60.46;100260.41;4942441;28;114768;-85
2024/04/03 11:06:42;;;;;;;2.38;0.93;;;;;;;16.64;60.33;100248.00;4946861;28;114279;-85
2024/04/03 11:09:09;;;;;;;2.85;1.05;;;;;;;16.67;60.37;100255.78;4957487;28;123903;-84
2024/04/03 11:11:39;;;;;;;1.48;1.08;;;;;;;16.69;60.18;100248.50;4939667;28;123509;-83
2024/04/03 11:14:05;;;;;;;1.83;1.15;;;;;;;16.70;60.12;100252.88;4943916;28;115138;-84
2024/04/03 11:16:32;;;;;;;2.80;0.80;;;;;;;16.71;60.27;100254.56;4923252;28;114615;-83
2024/04/03 11:18:58;;;;;;;1.35;0.98;;;;;;;16.72;59.97;100250.91;4957758;28;124408;-83
2024/04/03 11:21:26;;;;;;;1.77;1.05;;;;;;;16.72;59.97;100246.41;4923582;28;125110;-83
2024/04/03 11:23:52;;;;;;;1.85;1.00;;;;;;;16.73;59.84;100248.13;4945804;28;113456;-84